Burlington, Indiana
Current Conditions -  °F | °C
As of 4:35 PM on Thursday 23 Oct 2014 (Local Time) from KGGP Reporting Station
Clear Clear  
Wind Chill: 55°   Ceiling: Unl
Heat Index: 55°   Visibility: 10mi
Dew Point: 39°   Wind: 3mph
Humidity: 54%   Direction: 200°SSW
Pressure: 30.14"   Gusts: NA
Location:  40.48°N, 86.39°W
Report Text: KGGP 232035Z AUTO 20003KT 10SM CLR 13/04 A3014 RMK AO2
Loading
Personal Weather Stations






























Interactive Weather Map
Tropical Storm Tracking
New forecast layout! Learn more

10-Day Weather Forecast

Advertisements
Track Severe Weather on mobile